createdAt,value
2022-11-21T00:01:23.170Z,17.10
2022-11-21T00:03:50.332Z,16.55
2022-11-21T00:06:17.948Z,19.00
2022-11-21T00:08:44.993Z,18.13
2022-11-21T00:11:11.698Z,16.92
2022-11-21T00:13:39.062Z,16.67
2022-11-21T00:16:09.851Z,17.37
2022-11-21T00:18:36.948Z,19.00
2022-11-21T00:21:07.791Z,18.60
2022-11-21T00:23:34.517Z,18.07
2022-11-21T00:26:05.203Z,18.80
2022-11-21T00:28:31.768Z,18.93
2022-11-21T00:30:58.312Z,20.00
2022-11-21T00:33:27.346Z,19.53
2022-11-21T00:35:53.902Z,19.33
2022-11-21T00:38:20.545Z,18.80
2022-11-21T00:40:47.045Z,19.67
2022-11-21T00:43:13.614Z,18.33
2022-11-21T00:45:40.168Z,18.47
2022-11-21T00:48:07.237Z,19.33
2022-11-21T00:50:33.846Z,18.97
2022-11-21T00:53:00.418Z,18.70
2022-11-21T00:55:31.767Z,18.50
2022-11-21T00:57:58.282Z,21.40
2022-11-21T01:00:24.904Z,20.10
2022-11-21T01:02:51.432Z,20.97
2022-11-21T01:05:20.529Z,22.00
2022-11-21T01:07:49.176Z,21.53
2022-11-21T01:10:15.767Z,19.90
2022-11-21T01:12:45.443Z,21.77
2022-11-21T01:15:12.301Z,21.87
2022-11-21T01:17:38.873Z,22.30
2022-11-21T01:20:07.069Z,20.33
2022-11-21T01:22:33.695Z,20.23
2022-11-21T01:25:00.224Z,21.10
2022-11-21T01:27:26.752Z,20.87
2022-11-21T01:29:55.755Z,21.33
2022-11-21T01:32:22.366Z,21.83
2022-11-21T01:34:48.961Z,21.03
2022-11-21T01:37:17.697Z,19.63
2022-11-21T01:39:44.653Z,20.92
2022-11-21T01:42:13.775Z,19.57
2022-11-21T01:44:55.185Z,19.93
2022-11-21T01:47:23.994Z,20.00
2022-11-21T01:49:52.743Z,20.23
2022-11-21T01:52:31.050Z,19.07
2022-11-21T01:55:03.047Z,20.27
2022-11-21T01:57:43.413Z,20.27
2022-11-21T02:00:16.576Z,20.73
2022-11-21T02:02:51.384Z,21.17
2022-11-21T02:05:22.043Z,20.47
2022-11-21T02:07:50.813Z,22.37
2022-11-21T02:10:20.540Z,21.10
2022-11-21T02:12:53.745Z,20.57
2022-11-21T02:15:23.841Z,22.30
2022-11-21T02:17:50.475Z,20.40
2022-11-21T02:20:23.618Z,20.70
2022-11-21T02:22:58.669Z,20.43
2022-11-21T02:25:30.719Z,22.30
2022-11-21T02:28:03.045Z,21.10
2022-11-21T02:30:36.962Z,21.47
2022-11-21T02:33:03.689Z,20.17
2022-11-21T02:35:30.539Z,20.73
2022-11-21T02:38:03.949Z,19.60
2022-11-21T02:40:43.432Z,20.53
2022-11-21T02:43:33.077Z,19.97
2022-11-21T02:45:59.629Z,17.93
2022-11-21T02:48:26.162Z,19.13
2022-11-21T02:50:52.721Z,20.27
2022-11-21T02:53:21.575Z,18.80
2022-11-21T02:55:48.177Z,20.27
2022-11-21T02:58:15.385Z,21.27
2022-11-21T03:00:43.630Z,20.00
2022-11-21T03:03:12.477Z,19.43
2022-11-21T03:05:41.916Z,19.23
2022-11-21T03:08:10.749Z,19.63
2022-11-21T03:10:37.806Z,19.87
2022-11-21T03:13:04.442Z,18.83
2022-11-21T03:15:34.113Z,20.97
2022-11-21T03:18:03.245Z,20.53
2022-11-21T03:20:31.501Z,20.87
2022-11-21T03:22:58.202Z,21.27
2022-11-21T03:25:24.948Z,20.33
2022-11-21T03:27:53.410Z,21.43
2022-11-21T03:30:24.819Z,20.77
2022-11-21T03:32:55.101Z,20.97
2022-11-21T03:35:21.586Z,20.23
2022-11-21T03:37:51.087Z,20.10
2022-11-21T03:40:17.733Z,19.00
2022-11-21T03:42:44.598Z,20.87
2022-11-21T03:45:11.420Z,20.67
2022-11-21T03:47:37.937Z,21.13
2022-11-21T03:50:07.263Z,21.10
2022-11-21T03:52:33.946Z,20.17
2022-11-21T03:55:00.494Z,20.37
2022-11-21T03:57:27.218Z,21.20
2022-11-21T03:59:53.714Z,22.20
2022-11-21T04:02:20.317Z,20.63
2022-11-21T04:04:46.822Z,20.80
2022-11-21T04:07:13.357Z,20.63
2022-11-21T04:09:39.923Z,20.10
2022-11-21T04:12:08.018Z,19.83
2022-11-21T04:14:35.002Z,20.80
2022-11-21T04:17:01.617Z,20.33
2022-11-21T04:19:28.180Z,20.13
2022-11-21T04:21:54.728Z,21.37
2022-11-21T04:24:21.277Z,20.10
2022-11-21T04:26:47.759Z,19.40
2022-11-21T04:29:14.550Z,19.87
2022-11-21T04:31:41.454Z,20.17
2022-11-21T04:34:07.948Z,18.80
2022-11-21T04:36:34.643Z,20.20
2022-11-21T04:39:01.188Z,19.63
2022-11-21T04:41:28.028Z,20.13
2022-11-21T04:43:54.686Z,20.03
2022-11-21T04:46:21.219Z,22.77
2022-11-21T04:48:47.717Z,21.40
2022-11-21T04:51:14.392Z,20.23
2022-11-21T04:53:43.064Z,19.07
2022-11-21T04:56:10.208Z,18.93
2022-11-21T04:58:36.800Z,20.10
2022-11-21T05:01:08.223Z,19.83
2022-11-21T05:03:35.194Z,18.60
2022-11-21T05:06:04.074Z,18.60
2022-11-21T05:08:32.837Z,18.43
2022-11-21T05:11:18.024Z,17.97
2022-11-21T05:13:44.553Z,18.27
2022-11-21T05:16:11.357Z,19.20
2022-11-21T05:18:37.923Z,18.77
2022-11-21T05:21:04.606Z,17.97
2022-11-21T05:23:31.185Z,18.80
2022-11-21T05:26:00.261Z,19.77
2022-11-21T05:28:27.092Z,18.77
2022-11-21T05:30:53.741Z,18.80
2022-11-21T05:33:20.565Z,19.05
2022-11-21T05:35:49.473Z,20.30
2022-11-21T05:38:16.072Z,19.13
2022-11-21T05:40:42.619Z,19.70
2022-11-21T05:43:30.201Z,19.98
2022-11-21T05:45:56.813Z,18.13
2022-11-21T05:48:23.394Z,18.83
2022-11-21T05:50:50.509Z,17.40
2022-11-21T05:53:17.619Z,16.83
2022-11-21T05:55:49.339Z,17.10
2022-11-21T05:58:16.676Z,18.08
2022-11-21T06:00:43.229Z,19.02
2022-11-21T06:03:30.599Z,18.25
2022-11-21T06:06:07.900Z,17.33
2022-11-21T06:08:42.068Z,18.23
2022-11-21T06:11:11.503Z,17.13
2022-11-21T06:13:38.224Z,21.15
2022-11-21T06:16:10.561Z,18.27
2022-11-21T06:18:41.539Z,17.33
2022-11-21T06:21:12.361Z,17.97
2022-11-21T06:23:39.237Z,17.02
2022-11-21T06:26:11.737Z,18.73
2022-11-21T06:28:40.391Z,19.87
2022-11-21T06:31:09.097Z,21.85
2022-11-21T06:33:39.104Z,21.42
2022-11-21T06:36:11.001Z,20.45
2022-11-21T06:38:37.897Z,17.67
2022-11-21T06:41:12.149Z,18.67
2022-11-21T06:43:39.138Z,17.88
2022-11-21T06:46:08.470Z,17.00
2022-11-21T06:48:36.368Z,17.13
2022-11-21T06:51:07.669Z,16.85
2022-11-21T06:53:34.965Z,16.88
2022-11-21T06:56:02.584Z,16.63
2022-11-21T06:58:29.294Z,17.38
2022-11-21T07:00:56.390Z,17.05
2022-11-21T07:03:25.701Z,17.73
2022-11-21T07:05:58.553Z,17.27
2022-11-21T07:08:25.334Z,16.38
2022-11-21T07:11:17.785Z,17.92
2022-11-21T07:13:38.610Z,16.48
2022-11-21T07:16:17.602Z,16.13
2022-11-21T07:18:46.563Z,17.52
2022-11-21T07:21:13.185Z,17.55
2022-11-21T07:23:42.723Z,17.00
2022-11-21T07:26:11.021Z,17.30
2022-11-21T07:28:39.868Z,17.45
2022-11-21T07:31:12.912Z,16.35
2022-11-21T07:33:40.261Z,16.45
2022-11-21T07:36:07.380Z,15.35
2022-11-21T07:38:34.139Z,15.77
2022-11-21T07:41:03.686Z,16.63
2022-11-21T07:43:30.247Z,15.77
2022-11-21T07:45:56.789Z,19.58
2022-11-21T07:48:23.380Z,19.35
2022-11-21T07:50:50.022Z,19.42
2022-11-21T07:53:18.673Z,20.23
2022-11-21T07:55:45.311Z,17.13
2022-11-21T07:58:15.035Z,17.52
2022-11-21T08:00:45.214Z,16.52
2022-11-21T08:03:13.210Z,14.95
2022-11-21T08:05:42.047Z,15.85
2022-11-21T08:08:10.140Z,14.10
2022-11-21T08:10:42.388Z,13.85
2022-11-21T08:13:09.205Z,13.77
2022-11-21T08:15:36.514Z,14.32
2022-11-21T08:18:09.695Z,13.13
2022-11-21T08:20:36.344Z,12.50
2022-11-21T08:23:03.097Z,13.02
2022-11-21T08:25:30.478Z,12.98
2022-11-21T08:27:58.201Z,12.20
2022-11-21T08:30:27.412Z,13.25
2022-11-21T08:32:54.033Z,12.65
2022-11-21T08:35:23.074Z,16.70
2022-11-21T08:37:49.804Z,20.58
2022-11-21T08:40:18.626Z,39.50
2022-11-21T08:42:45.195Z,27.92
2022-11-21T08:45:14.218Z,24.10
2022-11-21T08:47:43.012Z,14.68
2022-11-21T08:50:11.769Z,14.27
2022-11-21T08:52:40.522Z,11.57
2022-11-21T08:55:08.146Z,12.40
2022-11-21T08:57:41.718Z,12.82
2022-11-21T09:00:12.556Z,9.15
2022-11-21T09:02:39.101Z,8.60
2022-11-21T09:05:06.279Z,8.95
2022-11-21T09:07:32.745Z,8.38
2022-11-21T09:09:59.362Z,7.03
2022-11-21T09:12:25.947Z,7.60
2022-11-21T09:15:11.270Z,7.70
2022-11-21T09:17:56.641Z,7.70
2022-11-21T09:20:23.641Z,7.93
2022-11-21T09:22:50.409Z,6.50
2022-11-21T09:25:19.429Z,6.05
2022-11-21T09:27:47.048Z,6.68
2022-11-21T09:30:14.034Z,6.53
2022-11-21T09:32:40.757Z,5.80
2022-11-21T09:35:08.016Z,5.53
2022-11-21T09:37:38.323Z,5.63
2022-11-21T09:40:08.041Z,4.78
2022-11-21T09:42:53.858Z,4.97
2022-11-21T09:45:26.425Z,4.80
2022-11-21T09:47:53.353Z,5.30
2022-11-21T09:50:35.730Z,4.47
2022-11-21T09:53:16.166Z,3.95
2022-11-21T09:55:47.581Z,4.50
2022-11-21T09:58:42.278Z,3.88
2022-11-21T10:01:14.022Z,4.35
2022-11-21T10:03:49.325Z,4.10
2022-11-21T10:06:24.319Z,4.18
2022-11-21T10:09:06.150Z,4.15
2022-11-21T10:12:11.391Z,3.63
2022-11-21T10:14:37.927Z,3.85
2022-11-21T10:17:38.477Z,3.60
2022-11-21T10:20:29.305Z,4.22
2022-11-21T10:23:00.473Z,5.68
2022-11-21T10:25:33.386Z,7.57
2022-11-21T10:28:13.867Z,7.82
2022-11-21T10:30:50.614Z,5.82
2022-11-21T10:33:33.876Z,5.13
2022-11-21T10:36:12.152Z,5.45
2022-11-21T10:38:41.718Z,5.63
2022-11-21T10:41:31.214Z,4.93
2022-11-21T10:44:42.079Z,3.85
2022-11-21T10:47:27.969Z,3.45
2022-11-21T10:50:09.535Z,4.07
2022-11-21T10:52:49.415Z,4.28
2022-11-21T10:55:17.812Z,3.50
2022-11-21T10:57:49.785Z,3.35
2022-11-21T11:00:26.926Z,3.50
2022-11-21T11:02:56.531Z,4.38
2022-11-21T11:05:25.457Z,3.70
2022-11-21T11:08:12.487Z,3.15
2022-11-21T11:10:41.230Z,3.63
2022-11-21T11:13:52.502Z,3.70
2022-11-21T11:16:24.465Z,3.00
2022-11-21T11:19:14.136Z,3.15
2022-11-21T11:21:44.364Z,3.42
2022-11-21T11:24:13.446Z,3.00
2022-11-21T11:26:49.527Z,2.80
2022-11-21T11:29:28.289Z,2.95
2022-11-21T11:32:05.171Z,3.58
2022-11-21T11:34:49.049Z,3.20
2022-11-21T11:37:40.424Z,2.72
2022-11-21T11:40:07.666Z,2.83
2022-11-21T11:43:05.352Z,3.13
2022-11-21T11:46:15.864Z,2.38
2022-11-21T11:49:11.308Z,2.75
2022-11-21T11:51:46.984Z,2.45
2022-11-21T11:54:29.887Z,2.08
2022-11-21T11:56:59.887Z,2.78
2022-11-21T11:59:32.910Z,2.28
2022-11-21T12:02:29.206Z,2.00
2022-11-21T12:04:59.241Z,2.47
2022-11-21T12:10:26.199Z,1.90
2022-11-21T12:12:58.440Z,1.80
2022-11-21T12:15:48.897Z,2.00
2022-11-21T12:18:15.393Z,1.90
2022-11-21T12:20:59.319Z,2.70
2022-11-21T12:23:36.898Z,2.28
2022-11-21T12:26:36.356Z,2.00
2022-11-21T12:29:25.743Z,1.60
2022-11-21T12:32:07.269Z,1.83
2022-11-21T12:34:59.860Z,1.92
2022-11-21T12:37:47.028Z,2.40
2022-11-21T12:40:19.934Z,2.92
2022-11-21T12:42:49.409Z,2.38
2022-11-21T12:45:37.885Z,3.40
2022-11-21T12:48:54.652Z,2.80
2022-11-21T12:51:55.522Z,2.38
2022-11-21T12:54:40.115Z,1.83
2022-11-21T12:57:20.609Z,2.25
2022-11-21T12:59:50.727Z,2.28
2022-11-21T13:02:39.528Z,2.08
2022-11-21T13:05:12.676Z,2.05
2022-11-21T13:07:41.013Z,2.10
2022-11-21T13:10:16.185Z,2.20
2022-11-21T13:13:09.939Z,2.25
2022-11-21T13:16:00.610Z,1.90
2022-11-21T13:18:44.296Z,2.08
2022-11-21T13:21:46.168Z,1.90
2022-11-21T13:24:44.948Z,1.67
2022-11-21T13:27:38.148Z,1.88
2022-11-21T13:30:11.485Z,1.70
2022-11-21T13:32:42.102Z,1.90
2022-11-21T13:35:22.141Z,1.80
2022-11-21T13:38:13.302Z,1.58
2022-11-21T13:41:08.045Z,2.08
2022-11-21T13:43:35.688Z,2.08
2022-11-21T13:46:28.660Z,2.20
2022-11-21T13:49:04.848Z,1.80
2022-11-21T13:51:50.554Z,1.90
2022-11-21T13:54:38.811Z,1.98
2022-11-21T13:57:19.610Z,1.83
2022-11-21T13:59:47.069Z,1.42
2022-11-21T14:02:39.775Z,1.83
2022-11-21T14:05:25.037Z,1.83
2022-11-21T14:07:51.837Z,2.00
2022-11-21T14:10:25.291Z,1.90
2022-11-21T14:12:54.891Z,1.98
2022-11-21T14:15:40.225Z,1.90
2022-11-21T14:18:22.645Z,2.38
2022-11-21T14:20:53.923Z,2.45
2022-11-21T14:23:22.697Z,2.42
2022-11-21T14:25:54.235Z,2.30
2022-11-21T14:28:32.497Z,2.83
2022-11-21T14:31:07.624Z,2.67
2022-11-21T14:33:36.256Z,2.22
2022-11-21T14:36:14.739Z,2.72
2022-11-21T14:39:07.577Z,2.95
2022-11-21T14:41:37.828Z,2.60
2022-11-21T14:44:13.798Z,2.80
2022-11-21T14:46:42.173Z,2.80
2022-11-21T14:49:23.316Z,2.50
2022-11-21T14:51:59.991Z,2.58
2022-11-21T14:54:31.990Z,2.70
2022-11-21T14:57:08.943Z,2.90
2022-11-21T14:59:43.588Z,2.65
2022-11-21T15:02:21.165Z,2.92
2022-11-21T15:04:50.105Z,2.65
2022-11-21T15:07:26.945Z,3.20
2022-11-21T15:13:16.069Z,3.25
2022-11-21T15:15:47.215Z,2.70
2022-11-21T15:18:28.632Z,3.42
2022-11-21T15:21:00.698Z,2.88
2022-11-21T15:23:33.175Z,3.13
2022-11-21T15:26:04.733Z,2.75
2022-11-21T15:28:31.902Z,3.17
2022-11-21T15:31:17.391Z,2.90
2022-11-21T15:34:34.148Z,2.38
2022-11-21T15:37:17.362Z,2.50
2022-11-21T15:39:55.742Z,2.75
2022-11-21T15:42:31.502Z,2.30
2022-11-21T15:44:59.333Z,2.88
2022-11-21T15:47:26.075Z,3.10
2022-11-21T15:49:55.233Z,2.70
2022-11-21T15:52:24.212Z,2.78
2022-11-21T15:54:50.866Z,3.00
2022-11-21T15:59:50.346Z,2.92
2022-11-21T16:02:17.092Z,2.75
2022-11-21T16:04:43.733Z,2.97
2022-11-21T16:07:10.405Z,3.50
2022-11-21T16:09:40.881Z,3.10
2022-11-21T16:12:09.263Z,3.67
2022-11-21T16:14:35.794Z,2.70
2022-11-21T16:17:04.867Z,2.58
2022-11-21T16:19:31.665Z,2.42
2022-11-21T16:21:58.491Z,2.63
2022-11-21T16:24:24.962Z,2.42
2022-11-21T16:26:54.534Z,2.25
2022-11-21T16:29:23.406Z,2.97
2022-11-21T16:31:50.435Z,2.90
2022-11-21T16:34:20.240Z,3.05
2022-11-21T16:36:46.879Z,2.35
2022-11-21T16:39:29.587Z,2.38
2022-11-21T16:41:59.091Z,2.38
2022-11-21T16:44:29.877Z,2.45
2022-11-21T16:46:56.431Z,2.35
2022-11-21T16:49:25.408Z,2.67
2022-11-21T16:51:52.141Z,2.90
2022-11-21T16:54:18.775Z,2.67
2022-11-21T16:56:45.339Z,2.40
2022-11-21T16:59:11.911Z,2.40
2022-11-21T17:01:38.653Z,2.63
2022-11-21T17:04:05.506Z,2.50
2022-11-21T17:06:32.103Z,2.55
2022-11-21T17:09:01.070Z,2.70
2022-11-21T17:11:31.076Z,2.60
2022-11-21T17:14:03.756Z,2.30
2022-11-21T17:16:31.336Z,2.80
2022-11-21T17:19:00.421Z,2.90
2022-11-21T17:21:30.344Z,2.78
2022-11-21T17:23:57.588Z,2.55
2022-11-21T17:26:26.785Z,2.70
2022-11-21T17:29:03.673Z,2.70
2022-11-21T17:31:30.996Z,2.30
2022-11-21T17:34:01.893Z,2.40
2022-11-21T17:36:30.138Z,2.38
2022-11-21T17:38:58.918Z,2.30
2022-11-21T17:41:26.185Z,2.40
2022-11-21T17:43:58.917Z,2.15
2022-11-21T17:46:26.108Z,2.42
2022-11-21T17:48:57.145Z,2.13
2022-11-21T17:51:34.495Z,2.40
2022-11-21T17:54:01.972Z,2.55
2022-11-21T17:56:31.993Z,2.42
2022-11-21T17:58:59.028Z,2.42
2022-11-21T18:01:25.964Z,2.58
2022-11-21T18:03:57.220Z,2.20
2022-11-21T18:06:25.597Z,2.53
2022-11-21T18:08:52.390Z,2.00
2022-11-21T18:11:24.247Z,2.53
2022-11-21T18:13:51.090Z,2.50
2022-11-21T18:16:20.775Z,2.42
2022-11-21T18:18:49.569Z,1.80
2022-11-21T18:21:19.072Z,2.38
2022-11-21T18:23:47.135Z,2.67
2022-11-21T18:26:22.204Z,2.20
2022-11-21T18:29:13.429Z,2.20
2022-11-21T18:31:42.786Z,2.50
2022-11-21T18:34:09.963Z,2.35
2022-11-21T18:36:36.640Z,2.58
2022-11-21T18:39:08.717Z,2.80
2022-11-21T18:41:41.044Z,2.92
2022-11-21T18:44:07.802Z,2.50
2022-11-21T18:46:36.528Z,2.72
2022-11-21T18:49:07.723Z,2.63
2022-11-21T18:51:35.622Z,3.10
2022-11-21T18:54:06.703Z,2.20
2022-11-21T18:56:34.456Z,2.40
2022-11-21T18:59:01.863Z,2.28
2022-11-21T19:01:30.273Z,2.78
2022-11-21T19:03:57.451Z,2.22
2022-11-21T19:06:28.285Z,2.50
2022-11-21T19:08:58.344Z,2.95
2022-11-21T19:11:27.784Z,2.92
2022-11-21T19:14:43.464Z,2.80
2022-11-21T19:17:10.406Z,2.67
2022-11-21T19:19:39.361Z,3.08
2022-11-21T19:22:06.405Z,2.67
2022-11-21T19:24:33.497Z,2.95
2022-11-21T19:27:00.129Z,2.58
2022-11-21T19:29:26.972Z,3.08
2022-11-21T19:31:56.277Z,2.40
2022-11-21T19:34:22.831Z,3.38
2022-11-21T19:36:51.746Z,2.78
2022-11-21T19:39:18.350Z,2.55
2022-11-21T19:41:44.929Z,2.90
2022-11-21T19:44:11.605Z,3.00
2022-11-21T19:46:41.603Z,2.53
2022-11-21T19:49:11.234Z,2.70
2022-11-21T19:51:40.519Z,3.60
2022-11-21T19:54:09.258Z,2.92
2022-11-21T19:56:36.457Z,3.75
2022-11-21T19:59:04.291Z,3.17
2022-11-21T20:01:33.536Z,3.00
2022-11-21T20:04:04.953Z,3.22
2022-11-21T20:06:37.971Z,3.13
2022-11-21T20:09:11.376Z,3.10
2022-11-21T20:11:40.386Z,3.72
2022-11-21T20:14:07.293Z,3.67
2022-11-21T20:16:42.932Z,2.80
2022-11-21T20:19:15.053Z,3.15
2022-11-21T20:21:43.170Z,3.08
2022-11-21T20:24:10.968Z,3.20
2022-11-21T20:26:37.630Z,2.70
2022-11-21T20:29:07.140Z,2.72
2022-11-21T20:31:37.302Z,2.75
2022-11-21T20:34:07.379Z,2.78
2022-11-21T20:36:36.937Z,3.00
2022-11-21T20:39:12.924Z,2.95
2022-11-21T20:41:41.783Z,3.05
2022-11-21T20:47:03.016Z,2.80
2022-11-21T20:49:29.900Z,3.10
2022-11-21T20:54:43.294Z,2.83
2022-11-21T20:57:14.848Z,2.53
2022-11-21T20:59:41.998Z,3.33
2022-11-21T21:02:12.329Z,3.00
2022-11-21T21:04:39.133Z,2.70
2022-11-21T21:07:05.707Z,3.30
2022-11-21T21:09:32.434Z,3.40
2022-11-21T21:11:59.108Z,3.50
2022-11-21T21:14:25.743Z,3.03
2022-11-21T21:16:52.272Z,3.35
2022-11-21T21:19:19.111Z,3.75
2022-11-21T21:21:46.035Z,3.40
2022-11-21T21:24:15.954Z,3.22
2022-11-21T21:26:47.697Z,3.78
2022-11-21T21:29:18.226Z,3.40
2022-11-21T21:31:50.408Z,3.42
2022-11-21T21:34:18.253Z,3.75
2022-11-21T21:36:45.142Z,3.63
2022-11-21T21:39:12.037Z,3.03
2022-11-21T21:41:44.702Z,3.55
2022-11-21T21:44:11.787Z,4.25
2022-11-21T21:46:38.338Z,3.92
2022-11-21T21:49:05.249Z,3.40
2022-11-21T21:51:32.325Z,3.50
2022-11-21T21:54:02.162Z,3.50
2022-11-21T21:56:29.563Z,3.45
2022-11-21T21:59:00.636Z,4.32
2022-11-21T22:01:30.190Z,3.70
2022-11-21T22:04:01.214Z,3.40
2022-11-21T22:06:28.714Z,3.40
2022-11-21T22:08:56.066Z,3.65
2022-11-21T22:11:27.607Z,4.18
2022-11-21T22:14:00.011Z,3.55
2022-11-21T22:16:27.070Z,3.35
2022-11-21T22:18:54.132Z,3.45
2022-11-21T22:21:33.520Z,3.97
2022-11-21T22:24:24.212Z,3.08
2022-11-21T22:26:51.082Z,3.58
2022-11-21T22:29:20.815Z,3.95
2022-11-21T22:31:47.406Z,4.03
2022-11-21T22:34:14.439Z,4.22
2022-11-21T22:36:41.610Z,4.13
2022-11-21T22:39:08.258Z,3.42
2022-11-21T22:41:37.130Z,3.58
2022-11-21T22:44:04.004Z,4.15
2022-11-21T22:46:31.267Z,4.07
2022-11-21T22:48:58.221Z,3.92
2022-11-21T22:51:27.088Z,4.10
2022-11-21T22:53:53.826Z,3.72
2022-11-21T22:56:22.437Z,3.95
2022-11-21T22:58:49.440Z,4.45
2022-11-21T23:01:19.179Z,3.97
2022-11-21T23:03:46.440Z,4.28
2022-11-21T23:06:15.732Z,4.40
2022-11-21T23:08:43.151Z,4.03
2022-11-21T23:11:10.947Z,4.03
2022-11-21T23:13:39.759Z,4.82
2022-11-21T23:16:07.470Z,4.28
2022-11-21T23:18:35.153Z,4.70
2022-11-21T23:21:02.416Z,4.05
2022-11-21T23:23:31.716Z,4.35
2022-11-21T23:25:58.565Z,4.45
2022-11-21T23:28:25.897Z,3.90
2022-11-21T23:30:52.571Z,4.80
2022-11-21T23:33:19.418Z,4.90
2022-11-21T23:35:46.992Z,3.92
2022-11-21T23:38:15.264Z,4.38
2022-11-21T23:40:42.056Z,4.32
2022-11-21T23:43:11.169Z,4.93
2022-11-21T23:45:42.245Z,4.15
2022-11-21T23:48:11.189Z,4.63
2022-11-21T23:50:40.079Z,4.80
2022-11-21T23:53:06.618Z,4.75
2022-11-21T23:55:36.165Z,4.63
2022-11-21T23:58:02.733Z,4.30
